sensor_id;sensor_type;location;lat;lon;timestamp;P1;durP1;ratioP1;P2;durP2;ratioP2
35223;SDS011;21367;51.930;8.112;2024-02-23T00:01:31;3.30;;;0.30;;
35223;SDS011;21367;51.930;8.112;2024-02-23T00:06:39;10.18;;;0.50;;
35223;SDS011;21367;51.930;8.112;2024-02-23T00:11:43;2.88;;;0.55;;
35223;SDS011;21367;51.930;8.112;2024-02-23T00:21:58;0.57;;;0.20;;
35223;SDS011;21367;51.930;8.112;2024-02-23T00:27:02;1.02;;;0.30;;
35223;SDS011;21367;51.930;8.112;2024-02-23T00:32:09;1.83;;;0.60;;
35223;SDS011;21367;51.930;8.112;2024-02-23T00:37:16;2.75;;;0.25;;
35223;SDS011;21367;51.930;8.112;2024-02-23T00:42:23;0.88;;;0.30;;
35223;SDS011;21367;51.930;8.112;2024-02-23T00:47:33;0.22;;;0.20;;
35223;SDS011;21367;51.930;8.112;2024-02-23T00:52:38;1.45;;;0.13;;
35223;SDS011;21367;51.930;8.112;2024-02-23T00:57:45;0.25;;;0.22;;
35223;SDS011;21367;51.930;8.112;2024-02-23T01:02:55;2.05;;;0.35;;
35223;SDS011;21367;51.930;8.112;2024-02-23T01:08:00;0.30;;;0.28;;
35223;SDS011;21367;51.930;8.112;2024-02-23T01:13:04;0.98;;;0.40;;
35223;SDS011;21367;51.930;8.112;2024-02-23T01:18:11;3.97;;;0.50;;
35223;SDS011;21367;51.930;8.112;2024-02-23T01:23:18;0.80;;;0.60;;
35223;SDS011;21367;51.930;8.112;2024-02-23T01:28:22;0.22;;;0.20;;
35223;SDS011;21367;51.930;8.112;2024-02-23T01:33:28;1.85;;;0.52;;
35223;SDS011;21367;51.930;8.112;2024-02-23T01:38:35;4.22;;;0.70;;
35223;SDS011;21367;51.930;8.112;2024-02-23T01:43:39;3.05;;;0.70;;
35223;SDS011;21367;51.930;8.112;2024-02-23T01:48:45;2.92;;;0.80;;
35223;SDS011;21367;51.930;8.112;2024-02-23T01:53:52;3.33;;;0.40;;
35223;SDS011;21367;51.930;8.112;2024-02-23T01:58:57;0.45;;;0.40;;
35223;SDS011;21367;51.930;8.112;2024-02-23T02:04:06;0.80;;;0.47;;
35223;SDS011;21367;51.930;8.112;2024-02-23T02:09:10;0.93;;;0.73;;
35223;SDS011;21367;51.930;8.112;2024-02-23T02:14:23;2.70;;;1.30;;
35223;SDS011;21367;51.930;8.112;2024-02-23T02:19:33;2.92;;;1.60;;
35223;SDS011;21367;51.930;8.112;2024-02-23T02:24:40;3.33;;;1.95;;
35223;SDS011;21367;51.930;8.112;2024-02-23T02:29:49;6.85;;;1.67;;
35223;SDS011;21367;51.930;8.112;2024-02-23T02:40:17;3.35;;;1.25;;
35223;SDS011;21367;51.930;8.112;2024-02-23T02:45:21;7.85;;;1.73;;
35223;SDS011;21367;51.930;8.112;2024-02-23T02:50:33;9.32;;;1.58;;
35223;SDS011;21367;51.930;8.112;2024-02-23T02:55:41;5.57;;;1.30;;
35223;SDS011;21367;51.930;8.112;2024-02-23T03:00:46;4.72;;;1.08;;
35223;SDS011;21367;51.930;8.112;2024-02-23T03:05:56;11.47;;;1.30;;
35223;SDS011;21367;51.930;8.112;2024-02-23T03:11:00;1.73;;;0.80;;
35223;SDS011;21367;51.930;8.112;2024-02-23T03:16:04;3.13;;;1.13;;
35223;SDS011;21367;51.930;8.112;2024-02-23T03:21:20;3.97;;;1.63;;
35223;SDS011;21367;51.930;8.112;2024-02-23T03:26:33;6.82;;;1.30;;
35223;SDS011;21367;51.930;8.112;2024-02-23T03:31:37;2.67;;;0.90;;
35223;SDS011;21367;51.930;8.112;2024-02-23T03:36:53;2.90;;;0.90;;
35223;SDS011;21367;51.930;8.112;2024-02-23T03:41:58;5.03;;;0.85;;
35223;SDS011;21367;51.930;8.112;2024-02-23T03:47:05;3.78;;;1.00;;
35223;SDS011;21367;51.930;8.112;2024-02-23T03:52:15;5.55;;;0.88;;
35223;SDS011;21367;51.930;8.112;2024-02-23T03:57:23;12.23;;;1.25;;
35223;SDS011;21367;51.930;8.112;2024-02-23T04:02:29;7.47;;;1.10;;
35223;SDS011;21367;51.930;8.112;2024-02-23T04:07:36;10.90;;;0.80;;
35223;SDS011;21367;51.930;8.112;2024-02-23T04:12:40;2.45;;;1.05;;
35223;SDS011;21367;51.930;8.112;2024-02-23T04:17:44;9.25;;;1.10;;
35223;SDS011;21367;51.930;8.112;2024-02-23T04:22:51;12.85;;;1.33;;
35223;SDS011;21367;51.930;8.112;2024-02-23T04:32:59;7.30;;;0.70;;
35223;SDS011;21367;51.930;8.112;2024-02-23T04:38:05;10.52;;;1.27;;
35223;SDS011;21367;51.930;8.112;2024-02-23T04:43:10;8.40;;;0.93;;
35223;SDS011;21367;51.930;8.112;2024-02-23T04:48:17;12.20;;;1.30;;
35223;SDS011;21367;51.930;8.112;2024-02-23T04:53:25;5.72;;;1.58;;
35223;SDS011;21367;51.930;8.112;2024-02-23T04:58:32;7.50;;;1.27;;
35223;SDS011;21367;51.930;8.112;2024-02-23T05:03:40;11.80;;;1.38;;
35223;SDS011;21367;51.930;8.112;2024-02-23T05:08:47;7.40;;;0.90;;
35223;SDS011;21367;51.930;8.112;2024-02-23T05:13:51;10.10;;;2.00;;
35223;SDS011;21367;51.930;8.112;2024-02-23T05:18:57;11.85;;;1.58;;
35223;SDS011;21367;51.930;8.112;2024-02-23T05:24:04;11.38;;;1.38;;
35223;SDS011;21367;51.930;8.112;2024-02-23T05:29:14;8.98;;;1.20;;
35223;SDS011;21367;51.930;8.112;2024-02-23T05:34:19;3.80;;;0.60;;
35223;SDS011;21367;51.930;8.112;2024-02-23T05:39:27;11.02;;;1.30;;
35223;SDS011;21367;51.930;8.112;2024-02-23T05:44:32;7.18;;;1.15;;
35223;SDS011;21367;51.930;8.112;2024-02-23T05:49:39;6.57;;;0.80;;
35223;SDS011;21367;51.930;8.112;2024-02-23T05:54:46;6.32;;;1.10;;
35223;SDS011;21367;51.930;8.112;2024-02-23T05:59:49;13.40;;;1.70;;
35223;SDS011;21367;51.930;8.112;2024-02-23T06:04:53;3.88;;;0.82;;
35223;SDS011;21367;51.930;8.112;2024-02-23T06:09:59;8.20;;;1.13;;
35223;SDS011;21367;51.930;8.112;2024-02-23T06:15:04;8.85;;;1.20;;
35223;SDS011;21367;51.930;8.112;2024-02-23T06:20:09;7.23;;;0.90;;
35223;SDS011;21367;51.930;8.112;2024-02-23T06:25:26;5.73;;;1.30;;
35223;SDS011;21367;51.930;8.112;2024-02-23T06:30:31;6.63;;;0.90;;
35223;SDS011;21367;51.930;8.112;2024-02-23T06:35:36;10.07;;;1.00;;
35223;SDS011;21367;51.930;8.112;2024-02-23T06:40:43;7.63;;;0.82;;
35223;SDS011;21367;51.930;8.112;2024-02-23T06:45:47;3.38;;;1.15;;
35223;SDS011;21367;51.930;8.112;2024-02-23T06:50:51;16.40;;;1.85;;
35223;SDS011;21367;51.930;8.112;2024-02-23T06:55:58;9.32;;;1.33;;
